Time;durP1;ratioP1;P1;durP2;ratioP2;P2;SDS_P1;SDS_P2;PMS_P1;PMS_P2;Temp;Humidity;BMP_temperature;BMP_pressure;BME280_temperature;BME280_humidity;BME280_pressure;Samples;Min_cycle;Max_cycle;Signal;HPM_P1;HPM_P2
2021/06/07 00:02:09;;;;;;;41.90;26.08;;;;;;;;;;5075850;28;20024;-66
2021/06/07 00:04:34;;;;;;;37.38;25.58;;;;;;;;;;5071805;28;20052;-66
2021/06/07 00:07:00;;;;;;;38.30;25.27;;;;;;;;;;5072395;28;20059;-66
2021/06/07 00:11:55;;;;;;;46.15;27.73;;;;;;;;;;5026220;28;20483;-65
2021/06/07 00:14:25;;;;;;;39.88;25.80;;;;;;;;;;5033769;28;20028;-64
2021/06/07 00:16:50;;;;;;;42.20;27.15;;;;;;;;;;5032468;28;20437;-64
2021/06/07 00:19:17;;;;;;;40.22;26.45;;;;;;;;;;5039985;28;20029;-64
2021/06/07 00:21:42;;;;;;;41.58;26.85;;;;;;;;;;5031361;28;20033;-65
2021/06/07 00:24:08;;;;;;;42.90;26.17;;;;;;;;;;5032022;28;20371;-64
2021/06/07 00:26:33;;;;;;;40.90;24.88;;;;;;;;;;5032074;28;20032;-64
2021/06/07 00:28:59;;;;;;;39.85;24.85;;;;;;;;;;5030888;28;20506;-64
2021/06/07 00:31:24;;;;;;;37.90;24.63;;;;;;;;;;5031355;28;20104;-65
2021/06/07 00:33:49;;;;;;;41.45;25.02;;;;;;;;;;5032096;28;20017;-65
2021/06/07 00:36:20;;;;;;;39.33;25.50;;;;;;;;;;5031597;28;20021;-65
2021/06/07 00:38:45;;;;;;;40.30;25.40;;;;;;;;;;5031404;28;20268;-64
2021/06/07 00:41:10;;;;;;;44.77;24.90;;;;;;;;;;5031233;28;20071;-65
2021/06/07 00:43:36;;;;;;;41.55;25.75;;;;;;;;;;5031585;28;20292;-64
2021/06/07 00:46:01;;;;;;;36.35;24.02;;;;;;;;;;5031662;28;20442;-65
2021/06/07 00:48:27;;;;;;;35.92;24.55;;;;;;;;;;5031416;28;20061;-65
2021/06/07 00:51:00;;;;;;;37.60;24.15;;;;;;;;;;5031690;28;20022;-65
2021/06/07 00:53:25;;;;;;;39.95;24.88;;;;;;;;;;5028561;28;20391;-64
2021/06/07 00:55:55;;;;;;;36.80;23.95;;;;;;;;;;5031202;28;20093;-64
2021/06/07 00:58:22;;;;;;;39.97;25.35;;;;;;;;;;5031387;28;20030;-64
2021/06/07 01:00:48;;;;;;;43.00;24.27;;;;;;;;;;5031206;28;20037;-64
2021/06/07 01:03:13;;;;;;;40.25;23.58;;;;;;;;;;5031490;28;20025;-64
2021/06/07 01:05:39;;;;;;;39.08;25.08;;;;;;;;;;5031297;28;20025;-65
2021/06/07 01:08:04;;;;;;;39.60;24.17;;;;;;;;;;5030683;28;20057;-64
2021/06/07 01:10:30;;;;;;;43.85;26.65;;;;;;;;;;5030438;28;20108;-64
2021/06/07 01:12:55;;;;;;;37.05;25.73;;;;;;;;;;5027010;28;20021;-65
2021/06/07 01:15:21;;;;;;;43.03;26.67;;;;;;;;;;5030339;28;20021;-65
2021/06/07 01:17:46;;;;;;;46.55;26.70;;;;;;;;;;5030751;28;20056;-64
2021/06/07 01:20:13;;;;;;;44.30;26.08;;;;;;;;;;5030766;28;20104;-65
2021/06/07 01:22:39;;;;;;;45.10;26.02;;;;;;;;;;5031571;28;20431;-64
2021/06/07 01:25:06;;;;;;;42.72;26.70;;;;;;;;;;5031065;28;20049;-64
2021/06/07 01:27:31;;;;;;;39.60;25.63;;;;;;;;;;5023038;28;20049;-64
2021/06/07 01:29:56;;;;;;;38.27;24.80;;;;;;;;;;5027611;28;20034;-64
2021/06/07 01:32:22;;;;;;;40.65;26.27;;;;;;;;;;5031315;28;20271;-65
2021/06/07 01:34:47;;;;;;;43.05;26.25;;;;;;;;;;5030437;28;20028;-64
2021/06/07 01:37:12;;;;;;;38.95;25.45;;;;;;;;;;5030797;28;20021;-65
2021/06/07 01:39:37;;;;;;;44.20;26.47;;;;;;;;;;5030566;28;20033;-64
2021/06/07 01:42:03;;;;;;;41.45;26.42;;;;;;;;;;5030311;28;20859;-64
2021/06/07 01:44:28;;;;;;;45.60;26.50;;;;;;;;;;5031073;28;20383;-64
2021/06/07 01:46:53;;;;;;;39.45;26.27;;;;;;;;;;5030211;28;20072;-65
2021/06/07 01:49:19;;;;;;;46.87;26.97;;;;;;;;;;5030431;28;20029;-65
2021/06/07 01:51:45;;;;;;;43.33;26.58;;;;;;;;;;5031005;28;20275;-64
2021/06/07 01:54:10;;;;;;;44.58;28.20;;;;;;;;;;5030725;28;20041;-64
2021/06/07 01:56:35;;;;;;;47.00;28.73;;;;;;;;;;5029909;28;20028;-64
2021/06/07 01:59:01;;;;;;;42.90;26.70;;;;;;;;;;5007019;28;20116;-65
2021/06/07 02:01:26;;;;;;;42.50;27.00;;;;;;;;;;5030355;28;20027;-64
2021/06/07 02:03:51;;;;;;;39.78;25.00;;;;;;;;;;5030506;28;20475;-64
2021/06/07 02:06:23;;;;;;;43.67;26.90;;;;;;;;;;5030880;28;20044;-65
2021/06/07 02:08:48;;;;;;;47.38;27.38;;;;;;;;;;5030023;28;20037;-64
2021/06/07 02:11:34;;;;;;;43.20;27.98;;;;;;;;;;5028852;28;20087;-64
2021/06/07 02:14:03;;;;;;;46.97;26.70;;;;;;;;;;5029581;28;20033;-64
2021/06/07 02:16:30;;;;;;;45.63;27.02;;;;;;;;;;5029725;28;20410;-64
2021/06/07 02:18:56;;;;;;;41.97;27.65;;;;;;;;;;5030376;28;20022;-65
2021/06/07 02:21:22;;;;;;;46.72;28.33;;;;;;;;;;5030142;28;20029;-65
2021/06/07 02:23:48;;;;;;;43.67;26.52;;;;;;;;;;5030478;28;20037;-65
2021/06/07 02:26:14;;;;;;;46.22;26.90;;;;;;;;;;5028172;28;20068;-64
2021/06/07 02:28:45;;;;;;;44.53;27.35;;;;;;;;;;5030052;28;20052;-65
2021/06/07 02:31:10;;;;;;;47.75;28.02;;;;;;;;;;5029729;28;20022;-64
2021/06/07 02:33:35;;;;;;;43.60;26.53;;;;;;;;;;5030078;28;20032;-65
2021/06/07 02:36:00;;;;;;;44.25;27.85;;;;;;;;;;5030296;28;20260;-64
2021/06/07 02:38:25;;;;;;;43.17;25.88;;;;;;;;;;5028664;28;20384;-64
2021/06/07 02:40:51;;;;;;;42.47;27.52;;;;;;;;;;5029637;28;20459;-64
2021/06/07 02:43:17;;;;;;;47.03;27.45;;;;;;;;;;5030240;28;20033;-65
2021/06/07 02:45:42;;;;;;;41.97;27.33;;;;;;;;;;5029999;28;20026;-65
2021/06/07 02:48:07;;;;;;;50.10;27.42;;;;;;;;;;5027174;28;20025;-65
2021/06/07 02:50:44;;;;;;;51.38;28.10;;;;;;;;;;5029810;28;20391;-65
2021/06/07 02:53:10;;;;;;;45.80;26.17;;;;;;;;;;5029094;28;20111;-65
2021/06/07 02:55:36;;;;;;;56.92;27.05;;;;;;;;;;5029836;28;20017;-64
2021/06/07 02:58:02;;;;;;;51.42;28.95;;;;;;;;;;5029818;28;20037;-65
2021/06/07 03:00:35;;;;;;;47.08;28.13;;;;;;;;;;5029219;28;20623;-63
2021/06/07 03:03:01;;;;;;;42.88;26.75;;;;;;;;;;5029696;28;20021;-65
2021/06/07 03:05:27;;;;;;;43.83;27.77;;;;;;;;;;5029534;28;20035;-65
2021/06/07 03:07:52;;;;;;;48.47;27.92;;;;;;;;;;5029110;28;20491;-65
2021/06/07 03:10:17;;;;;;;43.47;25.52;;;;;;;;;;5028969;28;20025;-64
2021/06/07 03:12:43;;;;;;;44.72;26.65;;;;;;;;;;5029789;28;20063;-64
2021/06/07 03:15:09;;;;;;;45.47;26.50;;;;;;;;;;5029034;28;20480;-64
2021/06/07 03:17:34;;;;;;;41.88;24.27;;;;;;;;;;5029417;28;20017;-64
2021/06/07 03:19:59;;;;;;;47.30;27.42;;;;;;;;;;5029504;28;20391;-64
2021/06/07 03:22:25;;;;;;;43.20;26.67;;;;;;;;;;5028945;28;20036;-65
2021/06/07 03:24:51;;;;;;;47.90;27.25;;;;;;;;;;5029850;28;20029;-64
2021/06/07 03:27:16;;;;;;;47.70;27.45;;;;;;;;;;5028196;28;20034;-64
2021/06/07 03:29:42;;;;;;;40.65;26.23;;;;;;;;;;5027498;28;20029;-65
2021/06/07 03:32:07;;;;;;;46.67;26.88;;;;;;;;;;5029335;28;20025;-65
2021/06/07 03:34:32;;;;;;;44.25;26.60;;;;;;;;;;5029278;28;20016;-64
2021/06/07 03:36:57;;;;;;;48.63;27.80;;;;;;;;;;5029009;28;20049;-65
2021/06/07 03:39:23;;;;;;;50.73;28.10;;;;;;;;;;5032285;28;20290;-65
2021/06/07 03:41:48;;;;;;;53.17;27.63;;;;;;;;;;5033364;28;20287;-64
2021/06/07 03:44:13;;;;;;;51.87;27.90;;;;;;;;;;5032854;28;20314;-65
2021/06/07 03:46:38;;;;;;;48.40;27.43;;;;;;;;;;5032676;28;20303;-65
2021/06/07 03:49:04;;;;;;;47.67;26.67;;;;;;;;;;5032938;28;20279;-64
2021/06/07 03:51:29;;;;;;;47.97;27.13;;;;;;;;;;5032419;28;20384;-65
2021/06/07 03:53:54;;;;;;;47.00;27.60;;;;;;;;;;5033359;28;20037;-64
2021/06/07 03:56:19;;;;;;;50.57;27.90;;;;;;;;;;5032461;28;20030;-64
2021/06/07 03:58:44;;;;;;;44.85;28.40;;;;;;;;;;5032063;28;20306;-64
2021/06/07 04:01:10;;;;;;;41.20;26.13;;;;;;;;;;5032682;28;20387;-64
2021/06/07 04:03:36;;;;;;;47.23;27.77;;;;;;;;;;5032622;28;20292;-65
2021/06/07 04:06:02;;;;;;;47.97;28.70;;;;;;;;;;5027465;28;20260;-64
2021/06/07 04:08:27;;;;;;;44.70;28.10;;;;;;;;;;5032101;28;20033;-64
2021/06/07 04:10:52;;;;;;;57.43;28.33;;;;;;;;;;5032518;28;20029;-64
2021/06/07 04:13:17;;;;;;;49.00;27.60;;;;;;;;;;5031250;28;20761;-64
2021/06/07 04:15:43;;;;;;;44.08;27.50;;;;;;;;;;5032569;28;20380;-64
2021/06/07 04:18:08;;;;;;;49.33;29.40;;;;;;;;;;5032408;28;20045;-63
2021/06/07 04:20:34;;;;;;;47.10;26.80;;;;;;;;;;5025120;28;20022;-64
2021/06/07 04:22:59;;;;;;;44.38;26.23;;;;;;;;;;5033010;28;20029;-64
2021/06/07 04:25:25;;;;;;;43.00;26.40;;;;;;;;;;5032280;28;20026;-65
2021/06/07 04:27:52;;;;;;;42.13;26.40;;;;;;;;;;5032131;28;20694;-64
2021/06/07 04:30:18;;;;;;;54.08;27.73;;;;;;;;;;5032599;28;20013;-65
2021/06/07 04:32:44;;;;;;;46.80;26.98;;;;;;;;;;5031665;28;20030;-64
2021/06/07 04:35:10;;;;;;;46.35;26.52;;;;;;;;;;5029045;28;20021;-65
2021/06/07 04:37:56;;;;;;;43.60;26.85;;;;;;;;;;5030335;28;20491;-64
2021/06/07 04:40:23;;;;;;;49.78;25.98;;;;;;;;;;5031318;28;20048;-65
2021/06/07 04:42:49;;;;;;;43.20;25.65;;;;;;;;;;5031663;28;20581;-65
2021/06/07 04:45:14;;;;;;;47.08;26.40;;;;;;;;;;5032103;28;20033;-65
2021/06/07 04:47:40;;;;;;;45.80;26.52;;;;;;;;;;5030334;28;20507;-65
2021/06/07 04:50:07;;;;;;;45.65;26.50;;;;;;;;;;5031515;28;20021;-64
2021/06/07 04:52:33;;;;;;;44.15;26.73;;;;;;;;;;5030977;28;20414;-65
2021/06/07 04:54:58;;;;;;;44.85;25.63;;;;;;;;;;5031051;28;20021;-65
2021/06/07 04:57:23;;;;;;;44.17;25.73;;;;;;;;;;5031846;28;20040;-64
2021/06/07 04:59:48;;;;;;;42.67;27.90;;;;;;;;;;5031252;28;20272;-65
2021/06/07 05:02:13;;;;;;;47.83;25.63;;;;;;;;;;5031518;28;20305;-64
2021/06/07 05:04:39;;;;;;;39.97;26.03;;;;;;;;;;5031819;28;20029;-65
2021/06/07 05:07:05;;;;;;;43.15;25.77;;;;;;;;;;5024402;28;20351;-65
2021/06/07 05:09:30;;;;;;;51.75;25.38;;;;;;;;;;5031260;28;20033;-64
2021/06/07 05:11:55;;;;;;;39.23;26.03;;;;;;;;;;5031788;28;20450;-65
2021/06/07 05:14:20;;;;;;;43.93;25.47;;;;;;;;;;5031484;28;20264;-65
2021/06/07 05:16:46;;;;;;;41.83;24.70;;;;;;;;;;5031197;28;20271;-65
2021/06/07 05:19:11;;;;;;;46.90;25.13;;;;;;;;;;5030859;28;20108;-65
2021/06/07 05:21:36;;;;;;;39.90;24.00;;;;;;;;;;5021610;28;20268;-64
2021/06/07 05:24:01;;;;;;;45.43;25.03;;;;;;;;;;5026364;28;20750;-64
2021/06/07 05:26:26;;;;;;;44.53;23.90;;;;;;;;;;5028880;28;20359;-64
2021/06/07 05:28:51;;;;;;;36.55;23.52;;;;;;;;;;5029206;28;20290;-65
2021/06/07 05:31:17;;;;;;;41.50;23.33;;;;;;;;;;5028943;28;20030;-65
2021/06/07 05:33:42;;;;;;;41.50;22.70;;;;;;;;;;5029221;28;20600;-65
2021/06/07 05:36:07;;;;;;;35.47;21.23;;;;;;;;;;5028511;28;20306;-65
2021/06/07 05:38:33;;;;;;;35.17;21.75;;;;;;;;;;5029023;28;20375;-65
2021/06/07 05:40:58;;;;;;;33.37;21.87;;;;;;;;;;5028729;28;20095;-64
2021/06/07 05:43:24;;;;;;;39.75;21.45;;;;;;;;;;5027944;28;20272;-65
2021/06/07 05:45:50;;;;;;;35.20;21.13;;;;;;;;;;5027198;28;20025;-64
2021/06/07 05:48:16;;;;;;;37.65;21.30;;;;;;;;;;5035703;28;20086;-65
2021/06/07 05:50:41;;;;;;;41.95;21.05;;;;;;;;;;5028335;28;20437;-65
2021/06/07 05:53:07;;;;;;;31.60;20.85;;;;;;;;;;5027437;28;20472;-65
2021/06/07 05:55:35;;;;;;;36.55;21.27;;;;;;;;;;5021718;28;20041;-65
2021/06/07 05:58:01;;;;;;;35.03;21.17;;;;;;;;;;5030106;28;20017;-65
2021/06/07 06:00:28;;;;;;;39.30;21.63;;;;;;;;;;5027498;28;20051;-66
2021/06/07 06:02:53;;;;;;;35.53;20.38;;;;;;;;;;5029125;28;20082;-64
2021/06/07 06:05:18;;;;;;;30.63;20.47;;;;;;;;;;5021928;28;20029;-65
2021/06/07 06:07:44;;;;;;;32.22;21.17;;;;;;;;;;5030240;28;20288;-65
2021/06/07 06:10:10;;;;;;;32.15;20.48;;;;;;;;;;5030663;28;20029;-67
2021/06/07 06:12:35;;;;;;;31.40;20.35;;;;;;;;;;5028749;28;20460;-66
2021/06/07 06:15:00;;;;;;;35.13;21.45;;;;;;;;;;5023070;28;20026;-65
2021/06/07 06:17:26;;;;;;;32.70;20.37;;;;;;;;;;5029763;28;20112;-66
2021/06/07 06:19:51;;;;;;;30.98;19.08;;;;;;;;;;5029572;28;20614;-66
2021/06/07 06:22:16;;;;;;;31.80;19.48;;;;;;;;;;5029858;28;20025;-66
2021/06/07 06:24:42;;;;;;;31.33;20.47;;;;;;;;;;5029828;28;20017;-66
2021/06/07 06:27:08;;;;;;;28.92;19.05;;;;;;;;;;5029725;28;20274;-65
2021/06/07 06:29:34;;;;;;;28.00;18.30;;;;;;;;;;5029417;28;20033;-66
2021/06/07 06:31:59;;;;;;;29.92;18.02;;;;;;;;;;5029634;28;20026;-66
2021/06/07 06:34:24;;;;;;;33.07;18.27;;;;;;;;;;5028649;28;20101;-65
2021/06/07 06:36:49;;;;;;;28.00;17.90;;;;;;;;;;5027741;28;20280;-66
2021/06/07 06:39:14;;;;;;;27.58;17.17;;;;;;;;;;5031030;28;20758;-65
2021/06/07 06:41:40;;;;;;;28.40;18.23;;;;;;;;;;5027917;28;20487;-66
2021/06/07 06:44:05;;;;;;;28.77;17.10;;;;;;;;;;5027180;28;20297;-66
2021/06/07 06:46:30;;;;;;;28.13;17.48;;;;;;;;;;5026385;28;20056;-65
2021/06/07 06:48:56;;;;;;;25.52;16.23;;;;;;;;;;5026084;28;20026;-64
2021/06/07 06:51:21;;;;;;;25.10;17.00;;;;;;;;;;5026520;28;20025;-66
2021/06/07 06:53:47;;;;;;;27.70;17.67;;;;;;;;;;5010453;28;20014;-65
2021/06/07 06:56:12;;;;;;;27.05;17.25;;;;;;;;;;5024861;28;20022;-66
2021/06/07 06:58:37;;;;;;;22.55;15.05;;;;;;;;;;5024778;28;20102;-66
2021/06/07 07:01:03;;;;;;;28.42;17.55;;;;;;;;;;5021837;28;20018;-66
2021/06/07 07:03:28;;;;;;;25.70;18.02;;;;;;;;;;5022037;28;20038;-65
2021/06/07 07:05:55;;;;;;;24.57;17.07;;;;;;;;;;5029092;28;20048;-64
2021/06/07 07:08:21;;;;;;;28.20;17.33;;;;;;;;;;5009884;28;20824;-64
2021/06/07 07:10:46;;;;;;;26.77;17.15;;;;;;;;;;5026903;28;20484;-65
2021/06/07 07:13:12;;;;;;;25.10;17.58;;;;;;;;;;5022504;28;20080;-65
2021/06/07 07:15:37;;;;;;;26.08;17.63;;;;;;;;;;5028933;28;20017;-66
2021/06/07 07:18:03;;;;;;;25.00;17.80;;;;;;;;;;5030850;28;20021;-66
2021/06/07 07:20:29;;;;;;;27.70;18.50;;;;;;;;;;5034636;28;20789;-66
2021/06/07 07:22:55;;;;;;;34.25;20.48;;;;;;;;;;5032846;28;20025;-65
2021/06/07 07:25:21;;;;;;;34.90;21.13;;;;;;;;;;5028780;28;20091;-66
2021/06/07 07:27:46;;;;;;;36.72;21.00;;;;;;;;;;5006517;28;20426;-67
2021/06/07 07:30:13;;;;;;;38.83;21.25;;;;;;;;;;5024336;28;20044;-66
2021/06/07 07:32:39;;;;;;;43.38;24.77;;;;;;;;;;5027345;28;20072;-66
2021/06/07 07:35:05;;;;;;;33.25;22.65;;;;;;;;;;5007956;28;20021;-66
2021/06/07 07:37:30;;;;;;;39.50;24.52;;;;;;;;;;5032637;28;20025;-65
2021/06/07 07:39:55;;;;;;;40.33;24.55;;;;;;;;;;5029303;28;20017;-66
2021/06/07 07:42:21;;;;;;;41.35;24.10;;;;;;;;;;5025742;28;20461;-66
2021/06/07 07:44:46;;;;;;;41.55;25.23;;;;;;;;;;5019300;28;20037;-67
2021/06/07 07:47:11;;;;;;;40.67;24.97;;;;;;;;;;5027774;28;20018;-66
2021/06/07 07:49:36;;;;;;;50.40;26.20;;;;;;;;;;5029431;28;20286;-67
2021/06/07 07:52:03;;;;;;;43.67;25.58;;;;;;;;;;5030972;28;20026;-66
2021/06/07 07:54:28;;;;;;;40.47;24.67;;;;;;;;;;5019048;28;20052;-66
2021/06/07 07:56:53;;;;;;;45.63;25.33;;;;;;;;;;5030250;28;20467;-66
2021/06/07 07:59:19;;;;;;;44.20;25.35;;;;;;;;;;5025064;28;20097;-66
2021/06/07 08:01:44;;;;;;;45.72;25.20;;;;;;;;;;5029088;28;20468;-65
2021/06/07 08:04:09;;;;;;;42.30;24.35;;;;;;;;;;5024055;28;20977;-65
2021/06/07 08:06:34;;;;;;;44.58;26.23;;;;;;;;;;5032222;28;20017;-66
2021/06/07 08:08:59;;;;;;;44.10;26.33;;;;;;;;;;5029548;28;20108;-65
2021/06/07 08:11:25;;;;;;;43.30;24.97;;;;;;;;;;5037259;28;20040;-65
2021/06/07 08:13:50;;;;;;;51.95;26.50;;;;;;;;;;5033028;28;20271;-65
2021/06/07 08:16:15;;;;;;;42.75;25.33;;;;;;;;;;5031545;28;20017;-65
2021/06/07 08:18:40;;;;;;;45.38;24.50;;;;;;;;;;5026844;28;20033;-65
2021/06/07 08:21:06;;;;;;;44.25;24.90;;;;;;;;;;5030676;28;20116;-65
2021/06/07 08:23:31;;;;;;;50.60;24.43;;;;;;;;;;5024165;28;20317;-65
2021/06/07 08:25:56;;;;;;;39.50;21.90;;;;;;;;;;5027220;28;20348;-65
2021/06/07 08:28:21;;;;;;;44.67;24.10;;;;;;;;;;5029653;28;20284;-65
2021/06/07 08:30:46;;;;;;;45.60;24.17;;;;;;;;;;5038624;28;20021;-66
2021/06/07 08:33:12;;;;;;;40.73;22.43;;;;;;;;;;5029121;28;20299;-66
2021/06/07 08:35:38;;;;;;;44.05;22.73;;;;;;;;;;5029255;28;20322;-65
2021/06/07 08:38:03;;;;;;;42.75;21.48;;;;;;;;;;5031496;28;20029;-65
2021/06/07 08:40:29;;;;;;;37.85;20.30;;;;;;;;;;5029822;28;20022;-66
2021/06/07 08:42:54;;;;;;;30.23;18.48;;;;;;;;;;5032911;28;20029;-66
2021/06/07 08:45:20;;;;;;;39.30;19.10;;;;;;;;;;5031369;28;20044;-65
2021/06/07 08:47:47;;;;;;;39.53;20.30;;;;;;;;;;5028163;28;20025;-66
2021/06/07 08:50:14;;;;;;;42.00;19.70;;;;;;;;;;5026783;28;20018;-65
2021/06/07 08:52:43;;;;;;;35.58;18.48;;;;;;;;;;5033739;28;20021;-65
2021/06/07 08:55:08;;;;;;;30.25;18.80;;;;;;;;;;5025124;28;20105;-66
2021/06/07 08:57:38;;;;;;;33.63;17.65;;;;;;;;;;5027382;28;20421;-66
2021/06/07 09:00:04;;;;;;;28.13;17.23;;;;;;;;;;5025609;28;20072;-65
2021/06/07 09:02:35;;;;;;;30.58;18.02;;;;;;;;;;5030857;28;20432;-65
2021/06/07 09:05:02;;;;;;;38.00;19.10;;;;;;;;;;5031066;28;20399;-66
2021/06/07 09:07:28;;;;;;;30.85;18.70;;;;;;;;;;5024593;28;20531;-67
2021/06/07 09:10:09;;;;;;;27.40;17.27;;;;;;;;;;5027608;28;20061;-66
2021/06/07 09:12:34;;;;;;;31.17;18.23;;;;;;;;;;5026035;28;20397;-66
2021/06/07 09:15:00;;;;;;;30.95;18.27;;;;;;;;;;5020920;28;20109;-65
2021/06/07 09:17:25;;;;;;;31.85;19.40;;;;;;;;;;5023741;28;20446;-65
2021/06/07 09:20:09;;;;;;;35.28;19.30;;;;;;;;;;5020231;28;20022;-65
2021/06/07 09:22:34;;;;;;;30.10;18.48;;;;;;;;;;5029862;28;20052;-66
2021/06/07 09:25:03;;;;;;;34.83;18.83;;;;;;;;;;5028363;28;20053;-65
2021/06/07 09:27:29;;;;;;;38.80;20.43;;;;;;;;;;5032629;28;20040;-66
2021/06/07 09:29:54;;;;;;;36.97;20.45;;;;;;;;;;5026226;28;20018;-65
2021/06/07 09:32:20;;;;;;;36.60;20.73;;;;;;;;;;5028341;28;20021;-65
2021/06/07 09:34:45;;;;;;;36.47;20.77;;;;;;;;;;5023307;28;20032;-65
2021/06/07 09:37:11;;;;;;;41.47;21.27;;;;;;;;;;5027366;28;20075;-65
2021/06/07 09:39:37;;;;;;;32.75;20.13;;;;;;;;;;5028812;28;20037;-65
2021/06/07 09:42:09;;;;;;;35.90;19.33;;;;;;;;;;5025334;28;20013;-65
2021/06/07 09:44:34;;;;;;;33.80;19.13;;;;;;;;;;5026425;28;20079;-65
2021/06/07 09:47:22;;;;;;;35.22;18.83;;;;;;;;;;5027406;28;20021;-66
2021/06/07 09:49:49;;;;;;;34.65;17.90;;;;;;;;;;5022505;28;20026;-65
2021/06/07 09:52:16;;;;;;;29.58;18.10;;;;;;;;;;5032918;28;20051;-66
2021/06/07 09:54:42;;;;;;;37.63;19.13;;;;;;;;;;5030479;28;20108;-67
2021/06/07 09:57:07;;;;;;;34.47;18.13;;;;;;;;;;5029870;28;20101;-66
2021/06/07 09:59:36;;;;;;;40.60;20.50;;;;;;;;;;5029397;28;20104;-66
2021/06/07 10:02:12;;;;;;;39.95;21.50;;;;;;;;;;5029989;28;20093;-66
2021/06/07 10:04:55;;;;;;;43.47;22.48;;;;;;;;;;5026872;28;20379;-66
2021/06/07 10:07:21;;;;;;;40.75;21.00;;;;;;;;;;5030259;28;20028;-66
2021/06/07 10:10:05;;;;;;;41.33;23.15;;;;;;;;;;5029666;28;20056;-66
2021/06/07 10:12:30;;;;;;;39.47;22.20;;;;;;;;;;5030216;28;20037;-66
2021/06/07 10:14:55;;;;;;;44.72;22.88;;;;;;;;;;5030113;28;20021;-66
2021/06/07 10:17:21;;;;;;;37.80;22.50;;;;;;;;;;5029708;28;20023;-66
2021/06/07 10:22:12;;;;;;;40.47;23.43;;;;;;;;;;5030390;28;20355;-66
2021/06/07 10:24:37;;;;;;;40.03;22.02;;;;;;;;;;5029283;28;20260;-66
2021/06/07 10:27:03;;;;;;;39.30;22.17;;;;;;;;;;5030022;28;20018;-66
2021/06/07 10:29:33;;;;;;;37.55;21.35;;;;;;;;;;5030313;28;20133;-66
2021/06/07 10:32:20;;;;;;;31.92;19.23;;;;;;;;;;5030393;28;20063;-66
2021/06/07 10:34:45;;;;;;;42.10;21.15;;;;;;;;;;5030186;28;20561;-67
2021/06/07 10:37:11;;;;;;;33.38;20.10;;;;;;;;;;5029711;28;20173;-66
2021/06/07 10:39:36;;;;;;;30.67;18.38;;;;;;;;;;5029857;28;20100;-66
2021/06/07 10:42:07;;;;;;;35.55;19.85;;;;;;;;;;5030022;28;20021;-66
2021/06/07 10:44:34;;;;;;;36.03;18.77;;;;;;;;;;5029853;28;20018;-66
2021/06/07 10:47:04;;;;;;;32.70;17.92;;;;;;;;;;5028744;28;20017;-65
2021/06/07 10:49:37;;;;;;;30.48;17.75;;;;;;;;;;5029923;28;20052;-66
2021/06/07 10:52:11;;;;;;;31.60;17.92;;;;;;;;;;5029815;28;20022;-66
2021/06/07 10:54:37;;;;;;;28.27;15.27;;;;;;;;;;5029558;28;20017;-66
2021/06/07 10:57:21;;;;;;;27.90;15.43;;;;;;;;;;5028480;28;20479;-66
2021/06/07 10:59:47;;;;;;;26.42;14.32;;;;;;;;;;5029598;28;20026;-66
2021/06/07 11:02:15;;;;;;;24.35;15.15;;;;;;;;;;5029838;28;20025;-66
2021/06/07 11:04:40;;;;;;;20.50;13.50;;;;;;;;;;5030168;28;20025;-66
2021/06/07 11:07:09;;;;;;;22.00;12.77;;;;;;;;;;5026503;28;20526;-66
2021/06/07 11:09:34;;;;;;;23.52;13.13;;;;;;;;;;5025743;28;20781;-66
2021/06/07 11:12:03;;;;;;;16.25;10.32;;;;;;;;;;5029719;28;20021;-66
2021/06/07 11:14:28;;;;;;;17.63;10.13;;;;;;;;;;5029945;28;20017;-66
2021/06/07 11:16:53;;;;;;;15.30;9.10;;;;;;;;;;5028587;28;20021;-66
2021/06/07 11:19:19;;;;;;;13.20;8.65;;;;;;;;;;5029799;28;20439;-67
2021/06/07 11:21:46;;;;;;;17.13;8.38;;;;;;;;;;5026626;28;20131;-66
2021/06/07 11:24:24;;;;;;;13.10;9.13;;;;;;;;;;5029885;28;20030;-66
2021/06/07 11:26:49;;;;;;;15.25;7.72;;;;;;;;;;5028805;28;20057;-66
2021/06/07 11:29:14;;;;;;;13.83;6.80;;;;;;;;;;5029822;28;20053;-66
2021/06/07 11:31:46;;;;;;;14.57;7.55;;;;;;;;;;5029068;28;20347;-66
2021/06/07 11:34:12;;;;;;;15.68;8.98;;;;;;;;;;4996797;28;20036;-66
2021/06/07 11:36:38;;;;;;;14.38;9.43;;;;;;;;;;5027972;28;20612;-66
2021/06/07 11:39:06;;;;;;;20.23;8.57;;;;;;;;;;5029889;28;20027;-66
2021/06/07 11:41:45;;;;;;;14.02;8.90;;;;;;;;;;5029151;28;20272;-66
2021/06/07 11:44:11;;;;;;;13.98;8.63;;;;;;;;;;5029101;28;20140;-66
2021/06/07 11:46:39;;;;;;;15.40;7.93;;;;;;;;;;5029071;28;20104;-66
2021/06/07 11:49:05;;;;;;;12.15;7.43;;;;;;;;;;5029463;28;20018;-66
2021/06/07 11:51:32;;;;;;;12.18;6.68;;;;;;;;;;5021704;28;20048;-66
2021/06/07 11:53:57;;;;;;;10.90;7.80;;;;;;;;;;5023145;28;20084;-66
2021/06/07 11:56:22;;;;;;;12.98;9.23;;;;;;;;;;5028629;28;20468;-65
2021/06/07 11:58:48;;;;;;;15.88;9.93;;;;;;;;;;5029375;28;20025;-65
2021/06/07 12:01:13;;;;;;;12.20;8.27;;;;;;;;;;5032077;28;20104;-66
2021/06/07 12:03:42;;;;;;;16.95;9.30;;;;;;;;;;5033037;28;20475;-65
2021/06/07 12:06:07;;;;;;;17.55;11.93;;;;;;;;;;5032114;28;20056;-65
2021/06/07 12:08:32;;;;;;;21.25;11.98;;;;;;;;;;5032038;28;20041;-66
2021/06/07 12:10:58;;;;;;;17.63;10.90;;;;;;;;;;5056897;23;20060;-65
2021/06/07 12:13:27;;;;;;;18.55;10.70;;;;;;;;;;5064731;28;20744;-66
2021/06/07 12:15:53;;;;;;;17.55;10.93;;;;;;;;;;5059909;28;20066;-68
2021/06/07 12:18:29;;;;;;;17.55;10.90;;;;;;;;;;5071925;28;20024;-68
2021/06/07 12:20:57;;;;;;;18.77;11.75;;;;;;;;;;5071727;28;20450;-68
2021/06/07 12:23:26;;;;;;;18.60;12.07;;;;;;;;;;5065123;28;20021;-68
2021/06/07 12:28:35;;;;;;;19.65;11.52;;;;;;;;;;5071074;28;20500;-68
2021/06/07 12:31:00;;;;;;;19.92;10.63;;;;;;;;;;5066939;28;20020;-68
2021/06/07 12:33:30;;;;;;;18.25;10.00;;;;;;;;;;5071753;28;20044;-68
2021/06/07 12:35:55;;;;;;;16.80;10.20;;;;;;;;;;5071926;28;20009;-67
2021/06/07 12:38:21;;;;;;;16.20;10.30;;;;;;;;;;5064996;28;20051;-68
2021/06/07 12:40:47;;;;;;;23.88;10.20;;;;;;;;;;5066709;28;20024;-67
2021/06/07 12:43:16;;;;;;;18.25;10.05;;;;;;;;;;5068696;28;20055;-68
2021/06/07 12:45:43;;;;;;;18.08;10.98;;;;;;;;;;5060615;28;20482;-68
2021/06/07 12:48:13;;;;;;;16.55;11.23;;;;;;;;;;5072303;28;20024;-68
2021/06/07 12:50:39;;;;;;;12.98;9.98;;;;;;;;;;5071396;28;20019;-66
2021/06/07 12:53:04;;;;;;;19.50;10.73;;;;;;;;;;5070925;28;20382;-66
2021/06/07 12:55:31;;;;;;;23.75;12.50;;;;;;;;;;5070890;28;20466;-67
2021/06/07 12:57:56;;;;;;;22.10;13.90;;;;;;;;;;5071007;28;20017;-66
2021/06/07 13:00:22;;;;;;;21.92;12.80;;;;;;;;;;5065150;28;20378;-66
2021/06/07 13:02:48;;;;;;;23.70;12.40;;;;;;;;;;5069965;28;20486;-69
2021/06/07 13:05:23;;;;;;;18.00;12.10;;;;;;;;;;5072157;28;20244;-67
2021/06/07 13:08:07;;;;;;;18.77;12.38;;;;;;;;;;5065605;28;20683;-68
2021/06/07 13:10:48;;;;;;;20.85;12.93;;;;;;;;;;5069013;28;20020;-65
2021/06/07 13:13:24;;;;;;;20.40;11.93;;;;;;;;;;5052677;28;20020;-64
2021/06/07 13:16:03;;;;;;;19.75;11.35;;;;;;;;;;5069089;28;20147;-66
2021/06/07 13:18:29;;;;;;;16.08;10.20;;;;;;;;;;5070518;28;20119;-66
2021/06/07 13:20:58;;;;;;;17.88;10.55;;;;;;;;;;5070971;28;20241;-68
2021/06/07 13:23:32;;;;;;;19.07;10.50;;;;;;;;;;5071412;28;20474;-68
2021/06/07 13:26:15;;;;;;;16.17;10.32;;;;;;;;;;5070928;28;20025;-68
2021/06/07 13:28:40;;;;;;;16.23;9.85;;;;;;;;;;5070414;28;20035;-67
2021/06/07 13:31:06;;;;;;;15.13;9.40;;;;;;;;;;5070701;28;20020;-68
2021/06/07 13:33:31;;;;;;;18.15;10.07;;;;;;;;;;5071767;28;20037;-69
2021/06/07 13:36:03;;;;;;;11.93;9.30;;;;;;;;;;5070935;28;20024;-68
2021/06/07 13:38:32;;;;;;;16.17;10.45;;;;;;;;;;5070224;28;20032;-68
2021/06/07 13:41:14;;;;;;;21.88;11.95;;;;;;;;;;5070155;28;20023;-68
2021/06/07 13:43:40;;;;;;;17.15;10.18;;;;;;;;;;5070229;28;20028;-68
2021/06/07 13:46:05;;;;;;;17.60;11.98;;;;;;;;;;5070240;28;20050;-68
2021/06/07 13:48:35;;;;;;;18.05;11.60;;;;;;;;;;5070073;28;20032;-68
2021/06/07 13:51:01;;;;;;;15.35;10.77;;;;;;;;;;5057803;28;20021;-69
2021/06/07 13:53:30;;;;;;;28.98;12.63;;;;;;;;;;5063419;28;20040;-68
2021/06/07 13:55:56;;;;;;;18.75;12.38;;;;;;;;;;5062021;28;20032;-68
2021/06/07 13:58:22;;;;;;;17.98;13.52;;;;;;;;;;5055086;28;20029;-69
2021/06/07 14:00:51;;;;;;;24.67;14.63;;;;;;;;;;5063315;28;20040;-68
2021/06/07 14:03:21;;;;;;;21.97;15.33;;;;;;;;;;5070698;28;20031;-67
2021/06/07 14:05:47;;;;;;;25.60;17.83;;;;;;;;;;5070907;28;20063;-67
2021/06/07 14:08:17;;;;;;;27.67;17.10;;;;;;;;;;5070386;28;20060;-67
2021/06/07 14:10:42;;;;;;;24.60;16.85;;;;;;;;;;5070436;28;20020;-67
2021/06/07 14:13:08;;;;;;;25.70;16.85;;;;;;;;;;5069879;28;20067;-67
2021/06/07 14:15:33;;;;;;;24.20;18.13;;;;;;;;;;5067336;28;20017;-67
2021/06/07 14:17:58;;;;;;;31.55;18.83;;;;;;;;;;5070632;28;20078;-67
2021/06/07 14:20:24;;;;;;;27.38;17.45;;;;;;;;;;5070589;28;20111;-67
2021/06/07 14:25:38;;;;;;;28.80;18.48;;;;;;;;;;5069958;28;20397;-67
2021/06/07 14:28:05;;;;;;;27.02;18.42;;;;;;;;;;5070152;28;20107;-67